createdAt,value
2022-10-11T00:03:20.292Z,2.03
2022-10-11T00:05:48.474Z,2.60
2022-10-11T00:08:16.947Z,2.38
2022-10-11T00:11:06.664Z,2.50
2022-10-11T00:13:35.061Z,2.08
2022-10-11T00:16:27.310Z,2.08
2022-10-11T00:19:24.544Z,1.83
2022-10-11T00:22:03.466Z,2.00
2022-10-11T00:24:31.843Z,1.60
2022-10-11T00:27:00.004Z,1.73
2022-10-11T00:29:39.300Z,1.83
2022-10-11T00:32:07.673Z,1.63
2022-10-11T00:34:35.754Z,2.00
2022-10-11T00:37:33.342Z,2.05
2022-10-11T00:40:19.721Z,2.05
2022-10-11T00:42:59.117Z,1.20
2022-10-11T00:46:04.965Z,1.50
2022-10-11T00:48:48.341Z,1.40
2022-10-11T00:51:52.623Z,1.98
2022-10-11T00:54:40.895Z,1.30
2022-10-11T00:57:43.827Z,1.88
2022-10-11T01:03:31.643Z,1.30
2022-10-11T01:06:11.051Z,1.30
2022-10-11T01:08:39.521Z,1.52
2022-10-11T01:11:12.633Z,1.42
2022-10-11T01:14:06.905Z,1.20
2022-10-11T01:16:52.232Z,1.30
2022-10-11T01:19:50.256Z,1.08
2022-10-11T01:22:35.294Z,1.60
2022-10-11T01:25:33.312Z,1.27
2022-10-11T01:28:33.602Z,0.90
2022-10-11T01:31:12.338Z,1.50
2022-10-11T01:34:16.686Z,1.10
2022-10-11T01:37:25.664Z,1.02
2022-10-11T01:40:08.194Z,1.10
2022-10-11T01:42:39.744Z,1.65
2022-10-11T01:45:39.639Z,1.33
2022-10-11T01:48:19.417Z,1.33
2022-10-11T01:50:50.714Z,1.23
2022-10-11T01:53:49.220Z,1.42
2022-10-11T01:57:28.656Z,1.30
2022-10-11T02:00:20.118Z,1.02
2022-10-11T02:04:04.661Z,1.15
2022-10-11T02:06:44.410Z,0.93
2022-10-11T02:09:24.880Z,1.30
2022-10-11T02:12:35.528Z,1.13
2022-10-11T02:15:17.550Z,1.02
2022-10-11T02:18:00.230Z,1.00
2022-10-11T02:20:30.476Z,0.65
2022-10-11T02:23:06.202Z,1.25
2022-10-11T02:25:36.461Z,0.90
2022-10-11T02:28:40.474Z,1.08
2022-10-11T02:31:21.052Z,1.13
2022-10-11T02:34:25.744Z,0.80
2022-10-11T02:37:21.495Z,1.10
2022-10-11T02:40:04.415Z,1.20
2022-10-11T02:43:30.051Z,1.23
2022-10-11T02:46:10.120Z,1.27
2022-10-11T02:49:26.751Z,1.50
2022-10-11T02:52:07.282Z,0.75
2022-10-11T02:54:47.135Z,0.90
2022-10-11T02:57:15.271Z,1.38
2022-10-11T02:59:55.075Z,1.63
2022-10-11T03:02:35.849Z,1.50
2022-10-11T03:05:15.467Z,1.08
2022-10-11T03:08:14.409Z,1.70
2022-10-11T03:10:43.240Z,1.10
2022-10-11T03:13:22.979Z,1.20
2022-10-11T03:16:03.918Z,1.02
2022-10-11T03:18:51.475Z,1.10
2022-10-11T03:24:15.360Z,1.13
2022-10-11T03:26:55.063Z,1.38
2022-10-11T03:29:34.448Z,1.10
2022-10-11T03:32:14.315Z,1.00
2022-10-11T03:34:54.130Z,0.98
2022-10-11T03:37:52.525Z,1.10
2022-10-11T03:40:20.713Z,1.13
2022-10-11T03:43:00.040Z,2.30
2022-10-11T03:45:59.431Z,1.10
2022-10-11T03:48:27.765Z,1.40
2022-10-11T03:51:07.786Z,1.30
2022-10-11T03:53:47.432Z,1.10
2022-10-11T03:56:26.674Z,1.40
2022-10-11T03:59:06.117Z,1.23
2022-10-11T04:01:45.327Z,1.10
2022-10-11T04:04:24.986Z,1.63
2022-10-11T04:07:05.036Z,1.58
2022-10-11T04:09:33.380Z,1.00
2022-10-11T04:12:13.558Z,1.50
2022-10-11T04:15:13.633Z,1.30
2022-10-11T04:17:51.735Z,1.10
2022-10-11T04:20:29.910Z,1.10
2022-10-11T04:23:27.605Z,1.20
2022-10-11T04:26:13.789Z,1.23
2022-10-11T04:28:53.898Z,1.33
2022-10-11T04:31:34.045Z,1.27
2022-10-11T04:34:14.124Z,1.23
2022-10-11T04:36:53.350Z,1.00
2022-10-11T04:39:33.523Z,1.50
2022-10-11T04:42:12.967Z,1.10
2022-10-11T04:44:52.742Z,1.10
2022-10-11T04:47:32.336Z,1.00
2022-10-11T04:50:12.196Z,1.75
2022-10-11T04:52:52.702Z,0.82
2022-10-11T04:58:30.969Z,1.00
2022-10-11T05:01:11.065Z,0.90
2022-10-11T05:03:50.013Z,0.82
2022-10-11T05:06:28.273Z,0.80
2022-10-11T05:09:43.499Z,0.98
2022-10-11T05:12:23.615Z,0.88
2022-10-11T05:15:03.504Z,0.80
2022-10-11T05:17:43.053Z,1.05
2022-10-11T05:20:22.896Z,0.82
2022-10-11T05:23:02.828Z,0.80
2022-10-11T05:25:43.196Z,1.15
2022-10-11T05:28:24.361Z,0.77
2022-10-11T05:31:04.154Z,0.80
2022-10-11T05:33:43.266Z,0.98
2022-10-11T05:36:21.698Z,1.30
2022-10-11T05:41:57.184Z,0.80
2022-10-11T05:44:36.946Z,1.20
2022-10-11T05:50:12.602Z,0.80
2022-10-11T05:52:52.567Z,1.55
2022-10-11T05:55:40.924Z,1.42
2022-10-11T05:58:20.154Z,1.02
2022-10-11T06:01:00.041Z,0.73
2022-10-11T06:03:39.733Z,1.10
2022-10-11T06:06:20.472Z,1.30
2022-10-11T06:08:59.362Z,1.67
2022-10-11T06:11:41.552Z,1.27
2022-10-11T06:14:28.435Z,0.98
2022-10-11T06:17:26.364Z,1.02
2022-10-11T06:20:31.841Z,1.13
2022-10-11T06:23:25.021Z,1.10
2022-10-11T06:26:42.807Z,0.90
2022-10-11T06:29:38.555Z,1.20
2022-10-11T06:32:16.218Z,1.00
2022-10-11T06:35:12.210Z,1.10
2022-10-11T06:38:17.203Z,1.63
2022-10-11T06:41:24.566Z,1.00
2022-10-11T06:44:17.630Z,1.13
2022-10-11T06:47:10.846Z,0.98
2022-10-11T06:50:06.714Z,1.08
2022-10-11T06:53:21.520Z,1.17
2022-10-11T06:56:16.904Z,1.10
2022-10-11T06:59:13.832Z,1.40
2022-10-11T07:02:10.671Z,1.20
2022-10-11T07:04:47.402Z,1.27
2022-10-11T07:07:43.522Z,1.35
2022-10-11T07:10:39.893Z,1.67
2022-10-11T07:13:33.055Z,1.40
2022-10-11T07:16:41.334Z,1.40
2022-10-11T07:19:40.177Z,1.23
2022-10-11T07:22:36.181Z,1.10
2022-10-11T07:25:45.399Z,1.30
2022-10-11T07:28:56.466Z,1.67
2022-10-11T07:32:04.573Z,0.80
2022-10-11T07:35:01.480Z,1.00
2022-10-11T07:37:57.263Z,0.77
2022-10-11T07:40:49.474Z,0.93
2022-10-11T07:43:43.735Z,1.27
2022-10-11T07:46:36.401Z,0.77
2022-10-11T07:49:47.178Z,1.30
2022-10-11T07:52:47.302Z,0.75
2022-10-11T07:55:42.864Z,1.13
2022-10-11T07:58:44.279Z,1.42
2022-10-11T08:01:38.022Z,1.20
2022-10-11T08:04:34.539Z,0.90
2022-10-11T08:07:30.754Z,1.40
2022-10-11T08:10:13.916Z,0.70
2022-10-11T08:13:10.167Z,0.80
2022-10-11T08:16:12.928Z,1.30
2022-10-11T08:22:45.062Z,1.00
2022-10-11T08:25:44.273Z,1.05
2022-10-11T08:28:42.919Z,0.90
2022-10-11T08:31:40.837Z,1.40
2022-10-11T08:34:42.955Z,1.52
2022-10-11T08:38:37.773Z,1.00
2022-10-11T08:48:37.682Z,1.25
2022-10-11T08:51:15.437Z,1.02
2022-10-11T08:53:47.037Z,0.88
2022-10-11T08:56:38.054Z,0.90
2022-10-11T08:59:11.875Z,1.65
2022-10-11T09:01:51.380Z,1.38
2022-10-11T09:04:19.690Z,1.67
2022-10-11T09:07:04.562Z,1.63
2022-10-11T09:09:51.695Z,1.40
2022-10-11T09:12:40.842Z,1.85
2022-10-11T09:15:47.143Z,1.63
2022-10-11T09:18:26.349Z,1.42
2022-10-11T09:21:17.054Z,1.15
2022-10-11T09:23:59.965Z,1.90
2022-10-11T09:26:35.138Z,1.30
2022-10-11T09:29:21.824Z,1.35
2022-10-11T09:32:23.072Z,1.50
2022-10-11T09:35:01.881Z,1.27
2022-10-11T09:37:42.794Z,1.45
2022-10-11T09:40:11.192Z,1.40
2022-10-11T09:42:59.755Z,1.27
2022-10-11T09:45:27.757Z,1.10
2022-10-11T09:47:58.089Z,1.42
2022-10-11T09:50:29.920Z,1.40
2022-10-11T09:53:16.715Z,1.00
2022-10-11T09:55:53.306Z,1.40
2022-10-11T10:01:07.922Z,1.42
2022-10-11T10:06:12.779Z,1.40
2022-10-11T10:08:42.862Z,1.20
2022-10-11T10:11:11.764Z,1.30
2022-10-11T10:13:42.542Z,1.20
2022-10-11T10:16:29.892Z,1.40
2022-10-11T10:19:18.086Z,1.10
2022-10-11T10:21:49.534Z,1.20
2022-10-11T10:24:42.976Z,1.17
2022-10-11T10:27:11.105Z,1.20
2022-10-11T10:29:39.091Z,1.33
2022-10-11T10:32:21.818Z,1.70
2022-10-11T10:34:52.624Z,1.33
2022-10-11T10:37:35.033Z,0.82
2022-10-11T10:40:25.801Z,1.10
2022-10-11T10:42:53.937Z,0.95
2022-10-11T10:45:28.683Z,0.90
2022-10-11T10:48:07.892Z,1.10
2022-10-11T10:51:08.390Z,0.85
2022-10-11T10:53:42.859Z,1.00
2022-10-11T10:57:00.443Z,1.00
2022-10-11T10:59:47.163Z,1.15
2022-10-11T11:02:45.941Z,0.80
2022-10-11T11:05:21.593Z,0.70
2022-10-11T11:08:05.058Z,0.90
2022-10-11T11:10:42.833Z,1.00
2022-10-11T11:13:24.511Z,1.38
2022-10-11T11:16:12.671Z,0.93
2022-10-11T11:19:19.299Z,1.30
2022-10-11T11:24:35.951Z,1.00
2022-10-11T11:29:54.527Z,0.90
2022-10-11T11:35:16.296Z,0.90
2022-10-11T11:37:47.349Z,1.00
2022-10-11T11:42:53.610Z,0.82
2022-10-11T11:45:27.525Z,0.80
2022-10-11T11:48:08.957Z,0.73
2022-10-11T11:50:45.287Z,0.93
2022-10-11T11:53:22.250Z,0.80
2022-10-11T11:55:53.413Z,0.80
2022-10-11T11:58:51.214Z,1.05
2022-10-11T12:01:53.020Z,1.00
2022-10-11T12:04:32.223Z,1.20
2022-10-11T12:07:16.375Z,0.85
2022-10-11T12:09:51.712Z,0.90
2022-10-11T12:12:34.267Z,0.70
2022-10-11T12:15:25.521Z,0.50
2022-10-11T12:17:56.285Z,1.00
2022-10-11T12:20:29.016Z,0.70
2022-10-11T12:23:02.565Z,0.60
2022-10-11T12:25:34.245Z,0.88
2022-10-11T12:28:22.717Z,0.65
2022-10-11T12:30:53.614Z,0.82
2022-10-11T12:33:46.054Z,0.50
2022-10-11T12:36:32.095Z,0.70
2022-10-11T12:39:18.919Z,1.48
2022-10-11T12:41:53.873Z,2.88
2022-10-11T12:44:24.815Z,0.65
2022-10-11T12:46:55.443Z,0.80
2022-10-11T12:49:29.389Z,1.27
2022-10-11T12:52:05.376Z,1.17
2022-10-11T12:54:39.384Z,0.98
2022-10-11T12:58:12.582Z,0.73
2022-10-11T13:00:40.588Z,0.93
2022-10-11T13:03:42.030Z,0.90
2022-10-11T13:06:26.389Z,0.73
2022-10-11T13:09:04.672Z,0.90
2022-10-11T13:11:37.353Z,0.80
2022-10-11T13:14:17.691Z,0.98
2022-10-11T13:17:00.566Z,0.63
2022-10-11T13:19:29.762Z,0.88
2022-10-11T13:22:05.945Z,0.68
2022-10-11T13:24:40.031Z,0.95
2022-10-11T13:27:08.543Z,0.57
2022-10-11T13:29:39.652Z,0.60
2022-10-11T13:32:29.949Z,0.70
2022-10-11T13:35:02.041Z,0.82
2022-10-11T13:37:31.758Z,0.77
2022-10-11T13:39:59.868Z,0.60
2022-10-11T13:42:32.716Z,1.02
2022-10-11T13:45:01.405Z,0.90
2022-10-11T13:47:32.266Z,0.82
2022-10-11T13:50:15.707Z,0.52
2022-10-11T13:53:11.809Z,0.70
2022-10-11T13:55:42.784Z,0.60
2022-10-11T13:58:18.974Z,0.70
2022-10-11T14:01:22.743Z,0.68
2022-10-11T14:03:57.828Z,1.00
2022-10-11T14:06:56.912Z,0.55
2022-10-11T14:12:38.363Z,0.70
2022-10-11T14:15:24.729Z,0.70
2022-10-11T14:17:52.834Z,0.70
2022-10-11T14:20:24.106Z,0.70
2022-10-11T14:22:53.287Z,0.60
2022-10-11T14:25:21.737Z,0.75
2022-10-11T14:27:50.048Z,1.00
2022-10-11T14:30:25.573Z,0.70
2022-10-11T14:32:57.098Z,0.60
2022-10-11T14:35:32.006Z,0.90
2022-10-11T14:38:00.098Z,0.52
2022-10-11T14:40:30.883Z,0.60
2022-10-11T14:42:58.945Z,0.57
2022-10-11T14:45:27.059Z,0.65
2022-10-11T14:47:56.331Z,0.90
2022-10-11T14:50:32.473Z,0.82
2022-10-11T14:53:00.687Z,0.52
2022-10-11T14:55:30.054Z,2.70
2022-10-11T14:57:58.342Z,0.63
2022-10-11T15:00:28.846Z,0.82
2022-10-11T15:03:15.310Z,1.55
2022-10-11T15:05:43.300Z,0.60
2022-10-11T15:08:12.397Z,0.50
2022-10-11T15:10:41.606Z,0.60
2022-10-11T15:13:10.078Z,0.50
2022-10-11T15:15:41.189Z,0.65
2022-10-11T15:18:13.200Z,0.60
2022-10-11T15:20:44.965Z,0.77
2022-10-11T15:23:13.170Z,0.70
2022-10-11T15:25:42.665Z,0.80
2022-10-11T15:28:27.704Z,0.70
2022-10-11T15:30:55.968Z,0.50
2022-10-11T15:33:25.383Z,0.52
2022-10-11T15:35:53.432Z,0.50
2022-10-11T15:38:24.343Z,0.60
2022-10-11T15:40:52.711Z,0.60
2022-10-11T15:43:24.715Z,0.77
2022-10-11T15:45:53.282Z,0.50
2022-10-11T15:48:23.219Z,0.40
2022-10-11T15:50:51.405Z,0.70
2022-10-11T15:53:22.305Z,0.77
2022-10-11T15:55:52.963Z,0.63
2022-10-11T15:58:41.109Z,0.50
2022-10-11T16:01:20.135Z,1.70
2022-10-11T16:03:49.925Z,0.80
2022-10-11T16:06:19.074Z,0.73
2022-10-11T16:09:05.812Z,0.57
2022-10-11T16:11:34.019Z,0.70
2022-10-11T16:14:02.013Z,0.70
2022-10-11T16:16:30.061Z,0.80
2022-10-11T16:18:58.009Z,0.50
2022-10-11T16:21:44.865Z,0.85
2022-10-11T16:24:12.825Z,1.10
2022-10-11T16:26:40.836Z,0.55
2022-10-11T16:29:08.854Z,0.70
2022-10-11T16:31:36.904Z,0.60
2022-10-11T16:34:05.153Z,0.47
2022-10-11T16:36:35.821Z,0.60
2022-10-11T16:39:16.262Z,0.88
2022-10-11T16:41:46.104Z,0.60
2022-10-11T16:44:16.361Z,0.80
2022-10-11T16:46:48.686Z,0.90
2022-10-11T16:49:19.177Z,1.05
2022-10-11T16:51:47.219Z,0.50
2022-10-11T16:54:19.981Z,0.70
2022-10-11T16:56:50.311Z,0.60
2022-10-11T16:59:18.672Z,0.70
2022-10-11T17:01:47.039Z,0.43
2022-10-11T17:04:15.851Z,0.68
2022-10-11T17:06:46.926Z,0.70
2022-10-11T17:09:16.199Z,0.82
2022-10-11T17:11:44.420Z,1.10
2022-10-11T17:14:13.979Z,0.75
2022-10-11T17:16:42.165Z,0.82
2022-10-11T17:21:58.083Z,0.80
2022-10-11T17:24:26.877Z,1.33
2022-10-11T17:26:55.249Z,0.82
2022-10-11T17:29:24.369Z,0.60
2022-10-11T17:31:52.777Z,0.60
2022-10-11T17:34:20.807Z,1.52
2022-10-11T17:36:48.937Z,0.73
2022-10-11T17:39:19.705Z,0.90
2022-10-11T17:41:47.986Z,0.90
2022-10-11T17:44:18.671Z,1.15
2022-10-11T17:46:47.843Z,0.95
2022-10-11T17:49:15.983Z,1.15
2022-10-11T17:51:44.467Z,1.35
2022-10-11T17:54:13.260Z,1.25
2022-10-11T17:56:41.961Z,1.00
2022-10-11T17:59:16.066Z,0.90
2022-10-11T18:01:44.539Z,0.98
2022-10-11T18:04:16.985Z,1.05
2022-10-11T18:06:46.452Z,1.00
2022-10-11T18:09:17.328Z,1.02
2022-10-11T18:11:46.661Z,0.93
2022-10-11T18:14:15.374Z,0.90
2022-10-11T18:16:44.172Z,0.70
2022-10-11T18:19:13.884Z,0.95
2022-10-11T18:21:41.915Z,0.80
2022-10-11T18:24:15.233Z,0.75
2022-10-11T18:26:44.766Z,0.88
2022-10-11T18:29:13.047Z,0.70
2022-10-11T18:31:41.458Z,0.70
2022-10-11T18:34:13.273Z,0.65
2022-10-11T18:36:41.373Z,0.60
2022-10-11T18:39:14.245Z,0.65
2022-10-11T18:41:44.754Z,0.70
2022-10-11T18:44:15.309Z,0.80
2022-10-11T18:47:02.142Z,1.00
2022-10-11T18:49:30.363Z,1.00
2022-10-11T18:51:58.626Z,1.35
2022-10-11T18:54:26.620Z,0.88
2022-10-11T18:56:54.623Z,0.75
2022-10-11T18:59:22.662Z,1.10
2022-10-11T19:01:53.236Z,0.90
2022-10-11T19:04:21.727Z,0.80
2022-10-11T19:06:49.968Z,0.90
2022-10-11T19:09:26.365Z,0.80
2022-10-11T19:12:13.737Z,0.80
2022-10-11T19:14:42.345Z,0.95
2022-10-11T19:17:12.805Z,1.10
2022-10-11T19:19:41.018Z,1.23
2022-10-11T19:22:09.048Z,0.88
2022-10-11T19:24:37.215Z,0.80
2022-10-11T19:27:05.306Z,0.90
2022-10-11T19:29:34.675Z,0.75
2022-10-11T19:32:06.026Z,0.90
2022-10-11T19:34:34.181Z,1.10
2022-10-11T19:37:03.615Z,0.77
2022-10-11T19:39:31.994Z,0.75
2022-10-11T19:42:01.082Z,1.27
2022-10-11T19:44:29.241Z,1.33
2022-10-11T19:47:01.451Z,1.40
2022-10-11T19:49:32.921Z,1.23
2022-10-11T19:52:01.551Z,1.00
2022-10-11T19:54:29.625Z,1.52
2022-10-11T19:56:57.604Z,2.08
2022-10-11T19:59:27.135Z,1.02
2022-10-11T20:01:55.183Z,0.95
2022-10-11T20:07:11.492Z,0.70
2022-10-11T20:09:58.276Z,0.55
2022-10-11T20:12:29.380Z,0.90
2022-10-11T20:14:57.705Z,0.40
2022-10-11T20:17:45.639Z,0.60
2022-10-11T20:20:14.115Z,0.60
2022-10-11T20:22:42.160Z,0.60
2022-10-11T20:25:10.714Z,0.45
2022-10-11T20:27:38.813Z,0.70
2022-10-11T20:30:07.160Z,0.63
2022-10-11T20:32:35.172Z,0.80
2022-10-11T20:35:03.185Z,0.55
2022-10-11T20:37:31.402Z,0.40
2022-10-11T20:39:59.647Z,0.55
2022-10-11T20:42:29.730Z,0.50
2022-10-11T20:44:59.297Z,0.35
2022-10-11T20:47:27.276Z,0.88
2022-10-11T20:49:55.294Z,0.50
2022-10-11T20:52:23.323Z,0.40
2022-10-11T20:54:51.300Z,0.60
2022-10-11T20:57:19.311Z,0.43
2022-10-11T20:59:48.341Z,0.30
2022-10-11T21:02:18.944Z,0.47
2022-10-11T21:04:47.221Z,0.52
2022-10-11T21:07:33.864Z,0.57
2022-10-11T21:10:02.202Z,0.60
2022-10-11T21:12:30.199Z,0.57
2022-10-11T21:14:58.198Z,0.32
2022-10-11T21:17:26.205Z,0.85
2022-10-11T21:19:54.202Z,0.60
2022-10-11T21:22:22.138Z,0.60
2022-10-11T21:24:50.275Z,0.45
2022-10-11T21:27:18.407Z,0.40
2022-10-11T21:30:05.285Z,0.90
2022-10-11T21:32:33.557Z,1.10
2022-10-11T21:35:20.191Z,1.35
2022-10-11T21:37:48.286Z,0.85
2022-10-11T21:40:16.422Z,0.68
2022-10-11T21:42:44.791Z,0.60
2022-10-11T21:45:13.095Z,0.60
2022-10-11T21:47:43.687Z,0.50
2022-10-11T21:50:30.439Z,0.50
2022-10-11T21:52:58.712Z,0.77
2022-10-11T21:55:28.158Z,0.70
2022-10-11T21:58:14.948Z,0.73
2022-10-11T22:00:42.993Z,0.70
2022-10-11T22:03:11.566Z,0.73
2022-10-11T22:06:01.505Z,0.65
2022-10-11T22:08:49.175Z,0.60
2022-10-11T22:11:17.829Z,0.80
2022-10-11T22:13:45.993Z,0.60
2022-10-11T22:16:14.773Z,0.70
2022-10-11T22:18:43.330Z,1.00
2022-10-11T22:21:20.027Z,0.52
2022-10-11T22:26:36.141Z,0.60
2022-10-11T22:29:04.325Z,0.70
2022-10-11T22:31:32.571Z,0.70
2022-10-11T22:34:19.137Z,0.60
2022-10-11T22:36:47.961Z,0.80
2022-10-11T22:39:16.029Z,0.50
2022-10-11T22:41:44.222Z,0.60
2022-10-11T22:44:12.455Z,0.60
2022-10-11T22:46:40.641Z,0.60
2022-10-11T22:49:08.718Z,0.80
2022-10-11T22:51:36.933Z,0.70
2022-10-11T22:56:50.626Z,0.68
2022-10-11T22:59:18.700Z,0.75
2022-10-11T23:01:47.066Z,0.60
2022-10-11T23:04:17.933Z,0.80
2022-10-11T23:06:46.109Z,0.95
2022-10-11T23:09:14.282Z,0.70
2022-10-11T23:11:42.657Z,0.50
2022-10-11T23:14:11.290Z,0.60
2022-10-11T23:16:39.387Z,0.82
2022-10-11T23:19:07.437Z,0.82
2022-10-11T23:21:35.544Z,1.10
2022-10-11T23:24:03.814Z,0.68
2022-10-11T23:26:31.990Z,0.70
2022-10-11T23:29:00.187Z,0.80
2022-10-11T23:34:14.363Z,0.60
2022-10-11T23:36:43.665Z,0.35
2022-10-11T23:39:30.251Z,0.60
2022-10-11T23:41:58.528Z,0.60
2022-10-11T23:44:26.697Z,0.70
2022-10-11T23:46:54.782Z,0.60
2022-10-11T23:49:22.856Z,0.55
2022-10-11T23:51:50.955Z,1.10
2022-10-11T23:54:18.982Z,0.55
2022-10-11T23:56:47.217Z,0.75
2022-10-11T23:59:15.328Z,0.50
